Tropical Cyclones
[Index]
Main Index Home Page Stock Weather Photos Extreme Storms Discussion Storm News and Storm Chasing Reports Tropical Cyclones / Hurricanes / Typhoons Weather Data and Links Wild Fires / Bushfires Weather Observation Techniques Weather Picture Catalogue Tornado Pictures and Reports Stock Video Footage and DVDs for sale
Season 1977-1978 Tropical Cyclone STEVE Track Map
Season 1977-1978 Summaries: [BoM-AU] [JTWC-AU] [JTWC-SIO] [JTWC-SPAC] [JTWC-SH]
<<- Previous TC | JTWC 1977-1978 Season | Next TC ->>

click for intensity scale information  Lat/long Grid: Show Hide

 Date Labels: Show Hide

Joint Typhoon Warning Centre Cyclone Data

Name: STEVE
Number: 959 / 7803

24 Nov 1977 00:00 UTC to 02 Dec 1977 12:00 UTC

    date/time    lat    long     hPa   cat  kts
1977-11-24 00    5.9   176.9                  25          
1977-11-24 06    6.4   176.4                  25          
1977-11-24 12    6.9   176.0                  25          
1977-11-24 18    7.4   175.8                  30          
1977-11-25 00    7.9   175.8                  30          
1977-11-25 06    8.4   175.9                  30          
1977-11-25 12    9.0   176.0                  35          
1977-11-25 18    9.7   175.9                  35          
1977-11-26 00   10.5   175.8            1     40          
1977-11-26 06   11.0   175.7            1     45          
1977-11-26 12   11.5   175.5            1     50          
1977-11-26 18   12.3   175.2            2     60          
1977-11-27 00   13.0   175.0            2     65          
1977-11-27 06   13.4   174.9            2     65          
1977-11-27 12   13.8   174.8            2     65          
1977-11-27 18   14.3   174.6            2     55          
1977-11-28 00   15.0   174.5            1     45          
1977-11-28 06   16.0   174.6            1     40          
1977-11-28 12   17.0   174.7            1     40          
1977-11-28 18   18.0   174.8                  35          
1977-11-29 00   19.0   175.0                  35          
1977-11-29 06   19.9   175.1                  35          
1977-11-29 12   20.7   175.3                  35          
1977-11-29 18   21.8   175.4                  30          
1977-11-30 00   23.0   175.5                  30          
1977-11-30 06   23.9   175.4                  30          
1977-11-30 12   24.7   175.3                  30          
1977-11-30 18   25.3   175.2                  25          
1977-12-01 00   26.0   175.0                  25          
1977-12-01 06   26.7   174.8                  25          
1977-12-01 12   27.5   174.5                  25          
1977-12-01 18   28.2   174.4                  25          
1977-12-02 00   29.0   174.4                  25          
1977-12-02 06   30.3   175.2                  25          
1977-12-02 12   32.2   176.8                  25          
Winds are 1-min average.

Tropical cyclone tracks developed by Michael Bath using data from the Joint Typhoon Warning Centre Best Tracks and Google Maps.


[Australian Severe Weather index] [Copyright Notice] [Email Contacts] [Search This Site] [Privacy Policy]
Document: tropical_cyclone_steve.htm Updated: 18 September 2016